KMDT/MDT METAR and TAF weather

Enter ICAO airport designator
Station Type Date Time Source
KMDT METAR 2021/09/16 20:56 UTC NOAA

KMDT 162056Z 08007KT 10SM -RA SCT030 BKN049 BKN200 26/19 A3013 RMK AO2 RAB32 SLP203 P0000 60000 T02560189 55006


Station Type Date Time Source
KMDT Decoded METAR 2021/09/16 20:56 UTC NOAA

HARRISBURG INTERNATIONAL AIRPORT, PA, United States (KMDT) 40-12N 076-46W 95M
Sep 16, 2021 - 04:56 PM EDT / 2021.09.16 2056 UTC
Wind: from the E (080 degrees) at 8 MPH (7 KT):0
Visibility: 10 mile(s):0
Sky conditions: mostly cloudy
Weather: light rain
Precipitation last hour: A trace
Temperature: 78.1 F (25.6 C)
Dew Point: 66.0 F (18.9 C)
Relative Humidity: 66%
Pressure (altimeter): 30.13 in. Hg (1020 hPa)
Pressure tendency: 0.02 inches (0.6 hPa) lower than three hours ago
ob: KMDT 162056Z 08007KT 10SM -RA SCT030 BKN049 BKN200 26/19 A3013 RMK AO2 RAB32 SLP203 P0000 60000 T02560189 55006
cycle: 21

Station Type Date Time Source
KMDT TAF 2021/09/16 20:09 UTC NOAA

TAF
AMD KMDT 162007Z 1620/1718 07007KT P6SM SCT035 BKN050
FM162300 10006KT P6SM BKN025
FM170100 11002KT P6SM OVC015
FM170900 07003KT 4SM BR OVC007
FM171600 11004KT 6SM BR OVC007

Example: see airport list